sensor_id;sensor_type;location;lat;lon;timestamp;temperature;humidity
6810;DHT22;3443;48.812;9.112;2023-05-20T00:00:32;11.30;99.90
6810;DHT22;3443;48.812;9.112;2023-05-20T00:02:58;11.30;99.90
6810;DHT22;3443;48.812;9.112;2023-05-20T00:05:25;11.30;99.90
6810;DHT22;3443;48.812;9.112;2023-05-20T00:07:50;11.30;99.90
6810;DHT22;3443;48.812;9.112;2023-05-20T00:10:16;11.40;99.90
6810;DHT22;3443;48.812;9.112;2023-05-20T00:12:41;11.40;99.90
6810;DHT22;3443;48.812;9.112;2023-05-20T00:15:08;11.30;99.90
6810;DHT22;3443;48.812;9.112;2023-05-20T00:17:33;11.30;99.90
6810;DHT22;3443;48.812;9.112;2023-05-20T00:19:59;11.30;99.90
6810;DHT22;3443;48.812;9.112;2023-05-20T00:22:25;11.30;99.90
6810;DHT22;3443;48.812;9.112;2023-05-20T00:24:50;11.30;99.90
6810;DHT22;3443;48.812;9.112;2023-05-20T00:27:16;11.20;99.90
6810;DHT22;3443;48.812;9.112;2023-05-20T00:29:42;11.30;99.90
6810;DHT22;3443;48.812;9.112;2023-05-20T00:32:07;11.30;99.90
6810;DHT22;3443;48.812;9.112;2023-05-20T00:34:33;11.30;99.90
6810;DHT22;3443;48.812;9.112;2023-05-20T00:36:58;11.40;99.90
6810;DHT22;3443;48.812;9.112;2023-05-20T00:39:24;11.40;99.90
6810;DHT22;3443;48.812;9.112;2023-05-20T00:41:49;11.40;99.90
6810;DHT22;3443;48.812;9.112;2023-05-20T00:44:15;11.40;99.90
6810;DHT22;3443;48.812;9.112;2023-05-20T00:46:45;11.40;99.90
6810;DHT22;3443;48.812;9.112;2023-05-20T00:49:12;11.50;99.90
6810;DHT22;3443;48.812;9.112;2023-05-20T00:51:38;11.50;99.90
6810;DHT22;3443;48.812;9.112;2023-05-20T00:54:03;11.50;99.90
6810;DHT22;3443;48.812;9.112;2023-05-20T00:56:29;11.50;99.90
6810;DHT22;3443;48.812;9.112;2023-05-20T00:58:55;11.50;99.90
6810;DHT22;3443;48.812;9.112;2023-05-20T01:01:21;11.50;99.90
6810;DHT22;3443;48.812;9.112;2023-05-20T01:03:47;11.50;99.90
6810;DHT22;3443;48.812;9.112;2023-05-20T01:06:13;11.50;99.90
6810;DHT22;3443;48.812;9.112;2023-05-20T01:08:38;11.50;99.90
6810;DHT22;3443;48.812;9.112;2023-05-20T01:11:15;11.60;99.90
6810;DHT22;3443;48.812;9.112;2023-05-20T01:13:53;11.60;99.90
6810;DHT22;3443;48.812;9.112;2023-05-20T01:16:21;11.60;99.90
6810;DHT22;3443;48.812;9.112;2023-05-20T01:18:50;11.60;99.90
6810;DHT22;3443;48.812;9.112;2023-05-20T01:21:19;11.60;99.90
6810;DHT22;3443;48.812;9.112;2023-05-20T01:23:46;11.60;99.90
6810;DHT22;3443;48.812;9.112;2023-05-20T01:26:13;11.60;99.90
6810;DHT22;3443;48.812;9.112;2023-05-20T01:28:39;11.60;99.90
6810;DHT22;3443;48.812;9.112;2023-05-20T01:31:31;11.60;99.90
6810;DHT22;3443;48.812;9.112;2023-05-20T01:33:55;11.60;99.90
6810;DHT22;3443;48.812;9.112;2023-05-20T01:36:22;11.70;99.90
6810;DHT22;3443;48.812;9.112;2023-05-20T01:38:50;11.70;99.90
6810;DHT22;3443;48.812;9.112;2023-05-20T01:41:16;11.70;99.90
6810;DHT22;3443;48.812;9.112;2023-05-20T01:43:43;11.70;99.90
6810;DHT22;3443;48.812;9.112;2023-05-20T01:46:09;11.70;99.90
6810;DHT22;3443;48.812;9.112;2023-05-20T01:48:34;11.70;99.90
6810;DHT22;3443;48.812;9.112;2023-05-20T01:51:00;11.80;99.90
6810;DHT22;3443;48.812;9.112;2023-05-20T01:53:25;11.70;99.90
6810;DHT22;3443;48.812;9.112;2023-05-20T01:55:51;11.60;99.90
6810;DHT22;3443;48.812;9.112;2023-05-20T01:58:17;11.60;99.90
6810;DHT22;3443;48.812;9.112;2023-05-20T02:00:42;11.60;99.90
6810;DHT22;3443;48.812;9.112;2023-05-20T02:03:08;11.60;99.90
6810;DHT22;3443;48.812;9.112;2023-05-20T02:05:34;11.50;99.90
6810;DHT22;3443;48.812;9.112;2023-05-20T02:07:59;11.50;99.90
6810;DHT22;3443;48.812;9.112;2023-05-20T02:10:25;11.50;99.90
6810;DHT22;3443;48.812;9.112;2023-05-20T02:12:51;11.60;99.90
6810;DHT22;3443;48.812;9.112;2023-05-20T02:15:16;11.70;99.90
6810;DHT22;3443;48.812;9.112;2023-05-20T02:17:42;11.60;99.90
6810;DHT22;3443;48.812;9.112;2023-05-20T02:20:08;11.60;99.90
6810;DHT22;3443;48.812;9.112;2023-05-20T02:22:34;11.60;99.90
6810;DHT22;3443;48.812;9.112;2023-05-20T02:25:00;11.60;99.90
6810;DHT22;3443;48.812;9.112;2023-05-20T02:27:25;11.50;99.90
6810;DHT22;3443;48.812;9.112;2023-05-20T02:29:51;11.50;99.90
6810;DHT22;3443;48.812;9.112;2023-05-20T02:32:17;11.50;99.90
6810;DHT22;3443;48.812;9.112;2023-05-20T02:34:44;11.40;99.90
6810;DHT22;3443;48.812;9.112;2023-05-20T02:37:10;11.40;99.90
6810;DHT22;3443;48.812;9.112;2023-05-20T02:39:36;11.30;99.90
6810;DHT22;3443;48.812;9.112;2023-05-20T02:42:01;11.30;99.90
6810;DHT22;3443;48.812;9.112;2023-05-20T02:44:27;11.20;99.90
6810;DHT22;3443;48.812;9.112;2023-05-20T02:46:52;11.20;99.90
6810;DHT22;3443;48.812;9.112;2023-05-20T02:49:18;11.20;99.90
6810;DHT22;3443;48.812;9.112;2023-05-20T02:51:43;11.20;99.90
6810;DHT22;3443;48.812;9.112;2023-05-20T02:54:09;11.20;99.90
6810;DHT22;3443;48.812;9.112;2023-05-20T02:56:35;11.10;99.90
6810;DHT22;3443;48.812;9.112;2023-05-20T02:59:00;11.10;99.90
6810;DHT22;3443;48.812;9.112;2023-05-20T03:01:27;11.10;99.90
6810;DHT22;3443;48.812;9.112;2023-05-20T03:03:53;11.10;99.90
6810;DHT22;3443;48.812;9.112;2023-05-20T03:06:19;11.10;99.90
6810;DHT22;3443;48.812;9.112;2023-05-20T03:08:44;11.10;99.90
6810;DHT22;3443;48.812;9.112;2023-05-20T03:11:10;11.10;99.90
6810;DHT22;3443;48.812;9.112;2023-05-20T03:13:36;11.10;99.90
6810;DHT22;3443;48.812;9.112;2023-05-20T03:16:01;11.10;99.90
6810;DHT22;3443;48.812;9.112;2023-05-20T03:18:27;11.10;99.90
6810;DHT22;3443;48.812;9.112;2023-05-20T03:20:53;11.10;99.90
6810;DHT22;3443;48.812;9.112;2023-05-20T03:23:18;11.10;99.90
6810;DHT22;3443;48.812;9.112;2023-05-20T03:25:44;11.10;99.90
6810;DHT22;3443;48.812;9.112;2023-05-20T03:28:10;11.10;99.90
6810;DHT22;3443;48.812;9.112;2023-05-20T03:30:36;11.10;99.90
6810;DHT22;3443;48.812;9.112;2023-05-20T03:33:02;11.00;99.90
6810;DHT22;3443;48.812;9.112;2023-05-20T03:35:27;11.00;99.90
6810;DHT22;3443;48.812;9.112;2023-05-20T03:37:53;11.00;99.90
6810;DHT22;3443;48.812;9.112;2023-05-20T03:40:19;11.00;99.90
6810;DHT22;3443;48.812;9.112;2023-05-20T03:42:45;10.90;99.90
6810;DHT22;3443;48.812;9.112;2023-05-20T03:45:11;10.90;99.90
6810;DHT22;3443;48.812;9.112;2023-05-20T03:47:37;10.90;99.90
6810;DHT22;3443;48.812;9.112;2023-05-20T03:50:03;10.90;99.90
6810;DHT22;3443;48.812;9.112;2023-05-20T03:52:28;10.80;99.90
6810;DHT22;3443;48.812;9.112;2023-05-20T03:54:54;10.80;99.90
6810;DHT22;3443;48.812;9.112;2023-05-20T03:57:20;10.80;99.90
6810;DHT22;3443;48.812;9.112;2023-05-20T03:59:45;10.80;99.90
6810;DHT22;3443;48.812;9.112;2023-05-20T04:02:11;10.80;99.90
6810;DHT22;3443;48.812;9.112;2023-05-20T04:04:37;10.80;99.90
6810;DHT22;3443;48.812;9.112;2023-05-20T04:07:03;10.80;99.90
6810;DHT22;3443;48.812;9.112;2023-05-20T04:09:32;10.80;99.90
6810;DHT22;3443;48.812;9.112;2023-05-20T04:11:57;10.90;99.90
6810;DHT22;3443;48.812;9.112;2023-05-20T04:14:23;10.90;99.90
6810;DHT22;3443;48.812;9.112;2023-05-20T04:16:48;10.90;99.90
6810;DHT22;3443;48.812;9.112;2023-05-20T04:19:14;10.90;99.90
6810;DHT22;3443;48.812;9.112;2023-05-20T04:21:41;10.90;99.90
6810;DHT22;3443;48.812;9.112;2023-05-20T04:24:07;11.00;99.90
6810;DHT22;3443;48.812;9.112;2023-05-20T04:26:32;11.00;99.90
6810;DHT22;3443;48.812;9.112;2023-05-20T04:29:01;11.10;99.90
6810;DHT22;3443;48.812;9.112;2023-05-20T04:31:28;11.10;99.90
6810;DHT22;3443;48.812;9.112;2023-05-20T04:33:55;11.20;99.90
6810;DHT22;3443;48.812;9.112;2023-05-20T04:36:21;11.20;99.90
6810;DHT22;3443;48.812;9.112;2023-05-20T04:38:46;11.20;99.90
6810;DHT22;3443;48.812;9.112;2023-05-20T04:41:14;11.20;99.90
6810;DHT22;3443;48.812;9.112;2023-05-20T04:43:40;11.30;99.90
6810;DHT22;3443;48.812;9.112;2023-05-20T04:46:06;11.40;99.90
6810;DHT22;3443;48.812;9.112;2023-05-20T04:48:32;11.50;99.90
6810;DHT22;3443;48.812;9.112;2023-05-20T04:50:57;11.50;99.90
6810;DHT22;3443;48.812;9.112;2023-05-20T04:53:23;11.50;99.90
6810;DHT22;3443;48.812;9.112;2023-05-20T04:55:49;11.50;99.90
6810;DHT22;3443;48.812;9.112;2023-05-20T04:58:18;11.50;99.90
6810;DHT22;3443;48.812;9.112;2023-05-20T05:00:44;11.50;99.90
6810;DHT22;3443;48.812;9.112;2023-05-20T05:03:10;11.50;99.90
6810;DHT22;3443;48.812;9.112;2023-05-20T05:05:39;11.50;99.90
6810;DHT22;3443;48.812;9.112;2023-05-20T05:08:05;11.60;99.90
6810;DHT22;3443;48.812;9.112;2023-05-20T05:10:31;11.60;99.90
6810;DHT22;3443;48.812;9.112;2023-05-20T05:12:57;11.70;99.90
6810;DHT22;3443;48.812;9.112;2023-05-20T05:15:23;11.70;99.90
6810;DHT22;3443;48.812;9.112;2023-05-20T05:17:49;11.80;99.90
6810;DHT22;3443;48.812;9.112;2023-05-20T05:20:15;11.80;99.90
6810;DHT22;3443;48.812;9.112;2023-05-20T05:22:40;11.80;99.90
6810;DHT22;3443;48.812;9.112;2023-05-20T05:25:07;11.90;99.90
6810;DHT22;3443;48.812;9.112;2023-05-20T05:27:33;12.00;99.90
6810;DHT22;3443;48.812;9.112;2023-05-20T05:30:00;12.10;99.90
6810;DHT22;3443;48.812;9.112;2023-05-20T05:32:25;12.20;99.90
6810;DHT22;3443;48.812;9.112;2023-05-20T05:34:51;12.30;99.90
6810;DHT22;3443;48.812;9.112;2023-05-20T05:37:16;12.40;99.90
6810;DHT22;3443;48.812;9.112;2023-05-20T05:39:42;12.50;99.90
6810;DHT22;3443;48.812;9.112;2023-05-20T05:42:07;12.60;99.90
6810;DHT22;3443;48.812;9.112;2023-05-20T05:44:33;12.70;99.90
6810;DHT22;3443;48.812;9.112;2023-05-20T05:46:59;12.80;99.90
6810;DHT22;3443;48.812;9.112;2023-05-20T05:49:25;12.80;99.90
6810;DHT22;3443;48.812;9.112;2023-05-20T05:51:50;12.90;99.90
6810;DHT22;3443;48.812;9.112;2023-05-20T05:54:16;13.10;99.90
6810;DHT22;3443;48.812;9.112;2023-05-20T05:56:42;13.20;99.90
6810;DHT22;3443;48.812;9.112;2023-05-20T05:59:07;13.20;99.90
6810;DHT22;3443;48.812;9.112;2023-05-20T06:01:33;13.20;99.90
6810;DHT22;3443;48.812;9.112;2023-05-20T06:03:59;13.30;99.90
6810;DHT22;3443;48.812;9.112;2023-05-20T06:06:25;13.30;99.90
6810;DHT22;3443;48.812;9.112;2023-05-20T06:08:50;13.50;99.90
6810;DHT22;3443;48.812;9.112;2023-05-20T06:11:16;13.60;99.90
6810;DHT22;3443;48.812;9.112;2023-05-20T06:13:41;13.70;99.90
6810;DHT22;3443;48.812;9.112;2023-05-20T06:16:07;13.80;99.90
6810;DHT22;3443;48.812;9.112;2023-05-20T06:18:32;13.90;99.90
6810;DHT22;3443;48.812;9.112;2023-05-20T06:20:58;14.00;99.90
6810;DHT22;3443;48.812;9.112;2023-05-20T06:23:25;14.10;99.90
6810;DHT22;3443;48.812;9.112;2023-05-20T06:25:51;14.20;99.90
6810;DHT22;3443;48.812;9.112;2023-05-20T06:28:16;14.40;99.90
6810;DHT22;3443;48.812;9.112;2023-05-20T06:30:42;14.70;99.90
6810;DHT22;3443;48.812;9.112;2023-05-20T06:33:07;14.90;99.90
6810;DHT22;3443;48.812;9.112;2023-05-20T06:35:34;15.00;99.90
6810;DHT22;3443;48.812;9.112;2023-05-20T06:38:00;15.10;99.90
6810;DHT22;3443;48.812;9.112;2023-05-20T06:40:26;15.20;99.90
6810;DHT22;3443;48.812;9.112;2023-05-20T06:42:52;15.30;99.90
6810;DHT22;3443;48.812;9.112;2023-05-20T06:45:17;15.30;99.90
6810;DHT22;3443;48.812;9.112;2023-05-20T06:47:43;15.20;99.90
6810;DHT22;3443;48.812;9.112;2023-05-20T06:50:09;15.30;99.90
6810;DHT22;3443;48.812;9.112;2023-05-20T06:52:35;15.40;99.90
6810;DHT22;3443;48.812;9.112;2023-05-20T06:55:02;15.40;99.90
6810;DHT22;3443;48.812;9.112;2023-05-20T06:57:27;15.40;99.90
6810;DHT22;3443;48.812;9.112;2023-05-20T06:59:53;15.40;99.90
6810;DHT22;3443;48.812;9.112;2023-05-20T07:02:20;15.50;99.90
6810;DHT22;3443;48.812;9.112;2023-05-20T07:04:46;15.60;99.90
6810;DHT22;3443;48.812;9.112;2023-05-20T07:07:12;15.70;99.90
6810;DHT22;3443;48.812;9.112;2023-05-20T07:09:37;15.80;99.90
6810;DHT22;3443;48.812;9.112;2023-05-20T07:12:03;15.80;99.90
6810;DHT22;3443;48.812;9.112;2023-05-20T07:14:28;15.90;99.90
6810;DHT22;3443;48.812;9.112;2023-05-20T07:16:54;15.90;99.90
6810;DHT22;3443;48.812;9.112;2023-05-20T07:19:19;16.00;99.90
6810;DHT22;3443;48.812;9.112;2023-05-20T07:21:45;15.90;99.90
6810;DHT22;3443;48.812;9.112;2023-05-20T07:24:11;15.70;99.90
6810;DHT22;3443;48.812;9.112;2023-05-20T07:26:36;15.60;99.90
6810;DHT22;3443;48.812;9.112;2023-05-20T07:29:03;15.60;99.90
6810;DHT22;3443;48.812;9.112;2023-05-20T07:31:29;15.70;99.90
6810;DHT22;3443;48.812;9.112;2023-05-20T07:33:55;15.80;99.90
6810;DHT22;3443;48.812;9.112;2023-05-20T07:36:21;15.80;99.90
6810;DHT22;3443;48.812;9.112;2023-05-20T07:38:47;15.80;99.90
6810;DHT22;3443;48.812;9.112;2023-05-20T07:41:12;15.80;99.90
6810;DHT22;3443;48.812;9.112;2023-05-20T07:43:38;15.80;99.90
6810;DHT22;3443;48.812;9.112;2023-05-20T07:46:03;15.90;99.90
6810;DHT22;3443;48.812;9.112;2023-05-20T07:48:29;15.90;99.90
6810;DHT22;3443;48.812;9.112;2023-05-20T07:50:54;16.00;99.90
6810;DHT22;3443;48.812;9.112;2023-05-20T07:53:24;16.10;99.90
6810;DHT22;3443;48.812;9.112;2023-05-20T07:55:49;16.10;99.90
6810;DHT22;3443;48.812;9.112;2023-05-20T07:58:15;16.10;99.90
6810;DHT22;3443;48.812;9.112;2023-05-20T08:00:40;15.90;99.90
6810;DHT22;3443;48.812;9.112;2023-05-20T08:03:06;16.00;99.90
6810;DHT22;3443;48.812;9.112;2023-05-20T08:05:32;16.00;99.90
6810;DHT22;3443;48.812;9.112;2023-05-20T08:10:26;16.40;99.90
6810;DHT22;3443;48.812;9.112;2023-05-20T08:12:52;16.80;99.90
6810;DHT22;3443;48.812;9.112;2023-05-20T08:15:17;17.00;99.90
6810;DHT22;3443;48.812;9.112;2023-05-20T08:17:43;17.00;99.90
6810;DHT22;3443;48.812;9.112;2023-05-20T08:20:09;17.00;99.90
6810;DHT22;3443;48.812;9.112;2023-05-20T08:22:37;16.70;99.90
6810;DHT22;3443;48.812;9.112;2023-05-20T08:25:03;16.70;99.90
6810;DHT22;3443;48.812;9.112;2023-05-20T08:27:29;16.80;99.90
6810;DHT22;3443;48.812;9.112;2023-05-20T08:29:54;17.00;99.90
6810;DHT22;3443;48.812;9.112;2023-05-20T08:32:20;17.40;99.90
6810;DHT22;3443;48.812;9.112;2023-05-20T08:34:46;17.60;99.90
6810;DHT22;3443;48.812;9.112;2023-05-20T08:37:13;17.50;99.90
6810;DHT22;3443;48.812;9.112;2023-05-20T08:39:39;17.30;99.90
6810;DHT22;3443;48.812;9.112;2023-05-20T08:42:05;17.20;99.90
6810;DHT22;3443;48.812;9.112;2023-05-20T08:44:33;17.00;99.90
6810;DHT22;3443;48.812;9.112;2023-05-20T08:46:59;17.00;99.90
6810;DHT22;3443;48.812;9.112;2023-05-20T08:49:25;17.10;99.90
6810;DHT22;3443;48.812;9.112;2023-05-20T08:51:51;17.30;99.90
6810;DHT22;3443;48.812;9.112;2023-05-20T08:54:17;17.50;99.90
6810;DHT22;3443;48.812;9.112;2023-05-20T08:56:44;17.70;99.90
6810;DHT22;3443;48.812;9.112;2023-05-20T08:59:11;17.70;99.90
6810;DHT22;3443;48.812;9.112;2023-05-20T09:01:41;17.50;99.90
6810;DHT22;3443;48.812;9.112;2023-05-20T09:04:08;17.60;99.90
6810;DHT22;3443;48.812;9.112;2023-05-20T09:09:11;17.90;99.90
6810;DHT22;3443;48.812;9.112;2023-05-20T09:11:38;18.00;99.90
6810;DHT22;3443;48.812;9.112;2023-05-20T09:14:05;18.10;99.90
6810;DHT22;3443;48.812;9.112;2023-05-20T09:16:30;18.30;99.90
6810;DHT22;3443;48.812;9.112;2023-05-20T09:18:56;18.20;99.90
6810;DHT22;3443;48.812;9.112;2023-05-20T09:21:28;18.20;99.90
6810;DHT22;3443;48.812;9.112;2023-05-20T09:23:55;18.40;99.90
6810;DHT22;3443;48.812;9.112;2023-05-20T09:26:26;18.30;99.90
6810;DHT22;3443;48.812;9.112;2023-05-20T09:28:54;18.30;99.90
6810;DHT22;3443;48.812;9.112;2023-05-20T09:31:20;18.40;99.90
6810;DHT22;3443;48.812;9.112;2023-05-20T09:33:48;18.50;99.90
6810;DHT22;3443;48.812;9.112;2023-05-20T09:36:14;18.40;99.90
6810;DHT22;3443;48.812;9.112;2023-05-20T09:38:40;18.50;99.90
6810;DHT22;3443;48.812;9.112;2023-05-20T09:41:10;18.50;99.90
6810;DHT22;3443;48.812;9.112;2023-05-20T09:43:38;18.40;99.90
6810;DHT22;3443;48.812;9.112;2023-05-20T09:46:04;18.50;99.90
6810;DHT22;3443;48.812;9.112;2023-05-20T09:48:30;18.60;99.90
6810;DHT22;3443;48.812;9.112;2023-05-20T09:50:56;18.60;99.90
6810;DHT22;3443;48.812;9.112;2023-05-20T09:53:25;18.80;99.90
6810;DHT22;3443;48.812;9.112;2023-05-20T09:58:19;19.40;99.90
6810;DHT22;3443;48.812;9.112;2023-05-20T11:00:42;20.50;99.90
6810;DHT22;3443;48.812;9.112;2023-05-20T11:03:08;20.80;99.90
6810;DHT22;3443;48.812;9.112;2023-05-20T11:05:35;20.90;99.90
6810;DHT22;3443;48.812;9.112;2023-05-20T11:08:08;20.40;99.90
6810;DHT22;3443;48.812;9.112;2023-05-20T11:10:34;20.20;99.90
6810;DHT22;3443;48.812;9.112;2023-05-20T11:13:01;20.50;99.90
6810;DHT22;3443;48.812;9.112;2023-05-20T11:15:27;20.60;99.90
6810;DHT22;3443;48.812;9.112;2023-05-20T11:17:56;20.60;99.90
6810;DHT22;3443;48.812;9.112;2023-05-20T11:20:23;20.60;99.90
6810;DHT22;3443;48.812;9.112;2023-05-20T11:22:53;20.80;99.90
6810;DHT22;3443;48.812;9.112;2023-05-20T11:25:19;21.10;99.90
6810;DHT22;3443;48.812;9.112;2023-05-20T11:27:46;21.30;99.90
6810;DHT22;3443;48.812;9.112;2023-05-20T11:30:14;21.60;99.90
6810;DHT22;3443;48.812;9.112;2023-05-20T11:32:54;21.60;99.90
6810;DHT22;3443;48.812;9.112;2023-05-20T11:35:24;21.70;99.90
6810;DHT22;3443;48.812;9.112;2023-05-20T11:37:54;21.80;99.90
6810;DHT22;3443;48.812;9.112;2023-05-20T11:40:24;21.80;99.90
6810;DHT22;3443;48.812;9.112;2023-05-20T11:42:59;21.70;99.90
6810;DHT22;3443;48.812;9.112;2023-05-20T11:45:25;21.30;99.90
6810;DHT22;3443;48.812;9.112;2023-05-20T11:48:02;21.20;99.90
6810;DHT22;3443;48.812;9.112;2023-05-20T11:50:32;21.30;99.90
6810;DHT22;3443;48.812;9.112;2023-05-20T11:52:59;21.30;99.90
6810;DHT22;3443;48.812;9.112;2023-05-20T11:55:25;21.30;99.90
6810;DHT22;3443;48.812;9.112;2023-05-20T11:57:51;21.40;99.90
6810;DHT22;3443;48.812;9.112;2023-05-20T12:00:17;21.40;99.90
6810;DHT22;3443;48.812;9.112;2023-05-20T12:02:43;21.50;99.90
6810;DHT22;3443;48.812;9.112;2023-05-20T12:05:09;21.60;99.90
6810;DHT22;3443;48.812;9.112;2023-05-20T12:07:35;21.50;99.90
6810;DHT22;3443;48.812;9.112;2023-05-20T12:10:02;21.50;99.90
6810;DHT22;3443;48.812;9.112;2023-05-20T12:12:28;21.50;99.90
6810;DHT22;3443;48.812;9.112;2023-05-20T12:24:38;22.40;99.90
6810;DHT22;3443;48.812;9.112;2023-05-20T12:27:04;22.60;99.90
6810;DHT22;3443;48.812;9.112;2023-05-20T12:29:31;22.70;99.90
6810;DHT22;3443;48.812;9.112;2023-05-20T12:31:56;22.50;99.90
6810;DHT22;3443;48.812;9.112;2023-05-20T12:34:22;22.30;99.90
6810;DHT22;3443;48.812;9.112;2023-05-20T12:36:48;22.60;99.90
6810;DHT22;3443;48.812;9.112;2023-05-20T12:39:13;22.60;99.90
6810;DHT22;3443;48.812;9.112;2023-05-20T12:41:42;22.70;99.90
6810;DHT22;3443;48.812;9.112;2023-05-20T12:44:07;23.10;99.90
6810;DHT22;3443;48.812;9.112;2023-05-20T12:46:36;23.10;99.90
6810;DHT22;3443;48.812;9.112;2023-05-20T12:49:02;23.30;99.90
6810;DHT22;3443;48.812;9.112;2023-05-20T12:51:28;23.30;99.90
6810;DHT22;3443;48.812;9.112;2023-05-20T12:53:53;23.40;99.90
6810;DHT22;3443;48.812;9.112;2023-05-20T12:56:19;23.30;99.90
6810;DHT22;3443;48.812;9.112;2023-05-20T12:58:45;23.00;99.90
6810;DHT22;3443;48.812;9.112;2023-05-20T13:01:11;22.70;99.90
6810;DHT22;3443;48.812;9.112;2023-05-20T13:03:36;22.70;99.90
6810;DHT22;3443;48.812;9.112;2023-05-20T13:06:03;22.80;99.90
6810;DHT22;3443;48.812;9.112;2023-05-20T13:08:28;22.90;99.90
6810;DHT22;3443;48.812;9.112;2023-05-20T13:10:54;22.60;99.90
6810;DHT22;3443;48.812;9.112;2023-05-20T13:13:20;22.30;99.90
6810;DHT22;3443;48.812;9.112;2023-05-20T13:15:49;22.30;99.90
6810;DHT22;3443;48.812;9.112;2023-05-20T13:18:14;22.60;99.90
6810;DHT22;3443;48.812;9.112;2023-05-20T13:20:42;23.00;99.90
6810;DHT22;3443;48.812;9.112;2023-05-20T13:23:08;22.80;99.90
6810;DHT22;3443;48.812;9.112;2023-05-20T13:25:33;22.70;99.90
6810;DHT22;3443;48.812;9.112;2023-05-20T13:27:59;23.10;99.90
6810;DHT22;3443;48.812;9.112;2023-05-20T13:30:25;23.60;99.90
6810;DHT22;3443;48.812;9.112;2023-05-20T13:32:52;23.90;99.90
6810;DHT22;3443;48.812;9.112;2023-05-20T13:35:18;23.60;99.90
6810;DHT22;3443;48.812;9.112;2023-05-20T13:37:43;23.20;99.90
6810;DHT22;3443;48.812;9.112;2023-05-20T13:40:09;23.10;99.90
6810;DHT22;3443;48.812;9.112;2023-05-20T13:42:36;23.00;99.90
6810;DHT22;3443;48.812;9.112;2023-05-20T13:45:01;22.60;99.90
6810;DHT22;3443;48.812;9.112;2023-05-20T13:47:27;22.50;99.90
6810;DHT22;3443;48.812;9.112;2023-05-20T13:49:52;22.60;99.90
6810;DHT22;3443;48.812;9.112;2023-05-20T13:52:18;22.50;99.90
6810;DHT22;3443;48.812;9.112;2023-05-20T13:54:43;22.50;99.90
6810;DHT22;3443;48.812;9.112;2023-05-20T13:57:11;22.60;99.90
6810;DHT22;3443;48.812;9.112;2023-05-20T13:59:37;22.60;99.90
6810;DHT22;3443;48.812;9.112;2023-05-20T14:02:03;22.60;99.90
6810;DHT22;3443;48.812;9.112;2023-05-20T14:04:28;22.50;99.90
6810;DHT22;3443;48.812;9.112;2023-05-20T14:06:55;22.50;99.90
6810;DHT22;3443;48.812;9.112;2023-05-20T14:09:21;22.60;99.90
6810;DHT22;3443;48.812;9.112;2023-05-20T14:11:46;22.70;99.90
6810;DHT22;3443;48.812;9.112;2023-05-20T14:14:12;22.60;99.90
6810;DHT22;3443;48.812;9.112;2023-05-20T14:16:37;22.60;99.90
6810;DHT22;3443;48.812;9.112;2023-05-20T14:19:04;22.50;99.90
6810;DHT22;3443;48.812;9.112;2023-05-20T14:21:29;22.40;99.90
6810;DHT22;3443;48.812;9.112;2023-05-20T14:23:57;22.40;99.90
6810;DHT22;3443;48.812;9.112;2023-05-20T14:26:23;22.40;99.90
6810;DHT22;3443;48.812;9.112;2023-05-20T14:28:48;22.50;99.90
6810;DHT22;3443;48.812;9.112;2023-05-20T14:31:14;22.60;99.90
6810;DHT22;3443;48.812;9.112;2023-05-20T14:33:40;22.70;99.90
6810;DHT22;3443;48.812;9.112;2023-05-20T14:36:06;22.80;99.90
6810;DHT22;3443;48.812;9.112;2023-05-20T14:38:31;23.00;99.90
6810;DHT22;3443;48.812;9.112;2023-05-20T14:40:57;23.30;99.90
6810;DHT22;3443;48.812;9.112;2023-05-20T14:43:22;23.60;99.90
6810;DHT22;3443;48.812;9.112;2023-05-20T14:45:48;23.70;99.90
6810;DHT22;3443;48.812;9.112;2023-05-20T14:48:14;23.70;99.90
6810;DHT22;3443;48.812;9.112;2023-05-20T14:50:40;23.80;99.90
6810;DHT22;3443;48.812;9.112;2023-05-20T14:53:06;23.90;99.90
6810;DHT22;3443;48.812;9.112;2023-05-20T14:55:31;24.00;99.90
6810;DHT22;3443;48.812;9.112;2023-05-20T14:57:57;23.90;99.90
6810;DHT22;3443;48.812;9.112;2023-05-20T15:00:23;23.40;99.90
6810;DHT22;3443;48.812;9.112;2023-05-20T15:02:48;23.70;99.90
6810;DHT22;3443;48.812;9.112;2023-05-20T15:05:14;23.50;99.90
6810;DHT22;3443;48.812;9.112;2023-05-20T15:07:39;23.20;99.90
6810;DHT22;3443;48.812;9.112;2023-05-20T15:10:05;23.10;99.90
6810;DHT22;3443;48.812;9.112;2023-05-20T15:12:32;22.80;99.90
6810;DHT22;3443;48.812;9.112;2023-05-20T15:14:57;22.70;99.90
6810;DHT22;3443;48.812;9.112;2023-05-20T15:17:23;22.70;99.90
6810;DHT22;3443;48.812;9.112;2023-05-20T15:19:48;22.70;99.90
6810;DHT22;3443;48.812;9.112;2023-05-20T15:22:14;22.80;99.90
6810;DHT22;3443;48.812;9.112;2023-05-20T15:24:39;22.80;99.90
6810;DHT22;3443;48.812;9.112;2023-05-20T15:27:05;22.90;99.90
6810;DHT22;3443;48.812;9.112;2023-05-20T15:29:31;22.90;99.90
6810;DHT22;3443;48.812;9.112;2023-05-20T15:31:57;22.90;99.90
6810;DHT22;3443;48.812;9.112;2023-05-20T15:34:22;23.00;99.90
6810;DHT22;3443;48.812;9.112;2023-05-20T15:36:48;23.00;99.90
6810;DHT22;3443;48.812;9.112;2023-05-20T15:39:13;22.90;99.90
6810;DHT22;3443;48.812;9.112;2023-05-20T15:41:39;22.90;99.90
6810;DHT22;3443;48.812;9.112;2023-05-20T15:44:07;23.00;99.90
6810;DHT22;3443;48.812;9.112;2023-05-20T15:46:32;23.20;99.90
6810;DHT22;3443;48.812;9.112;2023-05-20T15:48:58;23.20;99.90
6810;DHT22;3443;48.812;9.112;2023-05-20T15:51:24;23.00;99.90
6810;DHT22;3443;48.812;9.112;2023-05-20T15:53:49;23.10;99.90
6810;DHT22;3443;48.812;9.112;2023-05-20T15:56:15;23.10;99.90
6810;DHT22;3443;48.812;9.112;2023-05-20T15:58:40;23.10;99.90
6810;DHT22;3443;48.812;9.112;2023-05-20T16:01:06;23.00;99.90
6810;DHT22;3443;48.812;9.112;2023-05-20T16:03:32;22.80;99.90
6810;DHT22;3443;48.812;9.112;2023-05-20T16:05:58;22.70;99.90
6810;DHT22;3443;48.812;9.112;2023-05-20T16:08:24;22.70;99.90
6810;DHT22;3443;48.812;9.112;2023-05-20T16:10:49;22.80;99.90
6810;DHT22;3443;48.812;9.112;2023-05-20T16:13:15;22.80;99.90
6810;DHT22;3443;48.812;9.112;2023-05-20T16:15:41;22.90;99.90
6810;DHT22;3443;48.812;9.112;2023-05-20T16:18:06;22.90;99.90
6810;DHT22;3443;48.812;9.112;2023-05-20T16:20:32;22.70;99.90
6810;DHT22;3443;48.812;9.112;2023-05-20T16:22:58;22.90;99.90
6810;DHT22;3443;48.812;9.112;2023-05-20T16:25:23;22.90;99.90
6810;DHT22;3443;48.812;9.112;2023-05-20T16:27:49;23.00;99.90
6810;DHT22;3443;48.812;9.112;2023-05-20T16:30:14;23.00;99.90
6810;DHT22;3443;48.812;9.112;2023-05-20T16:32:40;23.20;99.90
6810;DHT22;3443;48.812;9.112;2023-05-20T16:35:06;23.20;99.90
6810;DHT22;3443;48.812;9.112;2023-05-20T16:37:32;23.20;99.90
6810;DHT22;3443;48.812;9.112;2023-05-20T16:39:58;23.20;99.90
6810;DHT22;3443;48.812;9.112;2023-05-20T16:42:24;23.00;99.90
6810;DHT22;3443;48.812;9.112;2023-05-20T16:44:50;23.00;99.90
6810;DHT22;3443;48.812;9.112;2023-05-20T16:47:16;22.90;99.90
6810;DHT22;3443;48.812;9.112;2023-05-20T16:49:41;23.10;99.90
6810;DHT22;3443;48.812;9.112;2023-05-20T16:52:07;22.90;99.90
6810;DHT22;3443;48.812;9.112;2023-05-20T16:54:33;22.60;99.90
6810;DHT22;3443;48.812;9.112;2023-05-20T16:57:02;22.50;99.90
6810;DHT22;3443;48.812;9.112;2023-05-20T16:59:29;22.40;99.90
6810;DHT22;3443;48.812;9.112;2023-05-20T17:01:55;22.20;99.90
6810;DHT22;3443;48.812;9.112;2023-05-20T17:04:21;22.20;99.90
6810;DHT22;3443;48.812;9.112;2023-05-20T17:06:46;22.10;99.90
6810;DHT22;3443;48.812;9.112;2023-05-20T17:09:14;22.00;99.90
6810;DHT22;3443;48.812;9.112;2023-05-20T17:11:41;22.10;99.90